Time;durP1;ratioP1;P1;durP2;ratioP2;P2;SDS_P1;SDS_P2;PMS_P1;PMS_P2;Temp;Humidity;BMP_temperature;BMP_pressure;BME280_temperature;BME280_humidity;BME280_pressure;Samples;Min_cycle;Max_cycle;Signal;HPM_P1;HPM_P2
2021/12/20 00:02:09;;;;;;;26.00;4.53;;;2.30;99.90;;;;;;4943368;29;20181;-95
2021/12/20 00:04:35;;;;;;;19.83;4.53;;;2.30;99.90;;;;;;4943499;29;20182;-96
2021/12/20 00:07:01;;;;;;;21.30;4.80;;;2.30;99.90;;;;;;4943599;29;20280;-95
2021/12/20 00:09:27;;;;;;;26.57;4.90;;;2.30;99.90;;;;;;4943536;29;20221;-96
2021/12/20 00:11:53;;;;;;;21.40;3.70;;;2.30;99.90;;;;;;4943101;29;20201;-96
2021/12/20 00:14:18;;;;;;;23.10;4.60;;;2.40;99.90;;;;;;4943263;29;20212;-96
2021/12/20 00:16:44;;;;;;;25.73;5.33;;;2.30;99.90;;;;;;5286048;23;20233;-94
2021/12/20 00:19:10;;;;;;;25.13;5.03;;;2.30;99.90;;;;;;4925198;29;20323;-95
2021/12/20 00:21:36;;;;;;;24.47;6.13;;;2.30;99.90;;;;;;4923371;29;20198;-95
2021/12/20 00:24:03;;;;;;;24.43;5.33;;;2.20;99.90;;;;;;4923538;29;20196;-95
2021/12/20 00:26:29;;;;;;;21.67;5.40;;;2.20;99.90;;;;;;4923357;29;20205;-94
2021/12/20 00:28:56;;;;;;;23.40;5.50;;;2.20;99.90;;;;;;4923705;29;20186;-95
2021/12/20 00:31:21;;;;;;;24.63;4.10;;;2.20;99.90;;;;;;4922921;29;20190;-95
2021/12/20 00:33:47;;;;;;;23.67;5.03;;;2.20;99.90;;;;;;4923173;29;20190;-94
2021/12/20 00:36:21;;;;;;;19.20;4.77;;;2.20;99.90;;;;;;4922987;29;20198;-94
2021/12/20 00:41:31;;;;;;;22.33;5.50;;;2.20;99.90;;;;;;4940246;29;20185;-94
2021/12/20 00:43:57;;;;;;;18.77;4.53;;;2.20;99.90;;;;;;4922962;29;20575;-95
2021/12/20 00:46:23;;;;;;;24.63;4.63;;;2.20;99.90;;;;;;4925622;29;20240;-93
2021/12/20 00:48:48;;;;;;;20.83;4.40;;;2.20;99.90;;;;;;4941640;29;20185;-94
2021/12/20 00:51:14;;;;;;;21.50;5.27;;;2.20;99.90;;;;;;4941954;29;20612;-94
2021/12/20 00:53:40;;;;;;;19.53;4.87;;;2.10;99.90;;;;;;4942019;29;20193;-93
2021/12/20 00:56:05;;;;;;;24.70;6.43;;;1.90;99.90;;;;;;4941380;29;20221;-94
2021/12/20 00:58:31;;;;;;;14.27;4.37;;;1.80;99.90;;;;;;4941748;29;20189;-94
2021/12/20 01:00:58;;;;;;;30.03;5.40;;;1.70;99.90;;;;;;4942151;29;20182;-95
2021/12/20 01:03:26;;;;;;;17.60;4.93;;;1.70;99.90;;;;;;4941649;29;20193;-93
2021/12/20 01:05:52;;;;;;;21.40;4.83;;;1.80;99.90;;;;;;4940796;29;20631;-94
2021/12/20 01:08:19;;;;;;;22.03;4.83;;;1.80;99.90;;;;;;4941596;29;20200;-93
2021/12/20 01:10:50;;;;;;;24.17;4.73;;;1.80;99.90;;;;;;4941658;29;20182;-94
2021/12/20 01:13:18;;;;;;;14.83;3.90;;;1.80;99.90;;;;;;4941529;29;20279;-94
2021/12/20 01:15:52;;;;;;;17.20;4.17;;;1.80;99.90;;;;;;4940092;29;20706;-93
2021/12/20 01:18:19;;;;;;;20.33;3.90;;;1.90;99.90;;;;;;4941541;29;20205;-93
2021/12/20 01:20:45;;;;;;;20.87;4.23;;;1.80;99.90;;;;;;4941182;29;20192;-93
2021/12/20 01:23:13;;;;;;;17.90;3.53;;;1.80;99.90;;;;;;4941114;29;20181;-94
2021/12/20 01:25:39;;;;;;;14.73;3.30;;;1.80;99.90;;;;;;4941007;29;20233;-93
2021/12/20 01:28:06;;;;;;;17.50;3.73;;;1.80;99.90;;;;;;4941240;29;20272;-93
2021/12/20 01:30:32;;;;;;;18.63;3.83;;;1.70;99.90;;;;;;4941151;29;20189;-95
2021/12/20 01:32:58;;;;;;;20.80;3.90;;;1.70;99.90;;;;;;4940752;29;20189;-94
2021/12/20 01:35:26;;;;;;;17.63;3.73;;;1.70;99.90;;;;;;4940840;29;20690;-93
2021/12/20 01:37:53;;;;;;;12.70;3.30;;;1.80;99.90;;;;;;4940883;29;20331;-94
2021/12/20 01:40:20;;;;;;;18.53;3.60;;;1.70;99.90;;;;;;4940996;29;20185;-94
2021/12/20 01:42:47;;;;;;;15.83;3.40;;;1.80;99.90;;;;;;4941200;29;20185;-94
2021/12/20 01:45:20;;;;;;;18.93;4.07;;;1.80;99.90;;;;;;4941220;29;20295;-94
2021/12/20 01:47:51;;;;;;;16.40;3.47;;;1.80;99.90;;;;;;4940370;29;20185;-93
2021/12/20 01:53:11;;;;;;;14.90;3.57;;;1.70;99.90;;;;;;4949805;29;20189;-93
2021/12/20 01:55:37;;;;;;;15.17;3.83;;;1.70;99.90;;;;;;4940487;29;20253;-93
2021/12/20 01:58:04;;;;;;;18.03;3.73;;;1.70;99.90;;;;;;4940554;29;20281;-94
2021/12/20 02:00:31;;;;;;;22.33;4.10;;;1.70;99.90;;;;;;4940581;29;20199;-93
2021/12/20 02:03:01;;;;;;;13.93;2.97;;;1.70;99.90;;;;;;4940505;29;20285;-93
2021/12/20 02:05:55;;;;;;;15.93;3.07;;;1.70;99.90;;;;;;4940923;29;20244;-94
2021/12/20 02:10:44;;;;;;;16.17;3.63;;;1.70;99.90;;;;;;4957818;29;20179;-93
2021/12/20 02:13:15;;;;;;;17.00;3.67;;;1.60;99.90;;;;;;4939956;29;20193;-94
2021/12/20 02:15:41;;;;;;;18.70;3.20;;;1.60;99.90;;;;;;4939981;29;20229;-93
2021/12/20 02:18:07;;;;;;;19.67;3.67;;;1.50;99.90;;;;;;4940110;29;20219;-93
2021/12/20 02:20:34;;;;;;;20.80;4.27;;;1.60;99.90;;;;;;4940750;29;20276;-94
2021/12/20 02:23:01;;;;;;;18.23;4.17;;;1.50;99.90;;;;;;4939953;29;20181;-94
2021/12/20 02:25:33;;;;;;;19.97;3.87;;;1.60;99.90;;;;;;4940336;29;20235;-93
2021/12/20 02:28:04;;;;;;;16.00;3.27;;;1.50;99.90;;;;;;4940328;29;20205;-93
2021/12/20 02:38:30;;;;;;;20.63;4.00;;;1.50;99.90;;;;;;4957453;29;20172;-93
2021/12/20 02:41:07;;;;;;;16.47;3.60;;;1.40;99.90;;;;;;4940192;29;20197;-93
2021/12/20 02:43:39;;;;;;;16.83;3.30;;;1.40;99.90;;;;;;4939984;29;20188;-92
2021/12/20 02:49:12;;;;;;;22.40;3.17;;;1.40;99.90;;;;;;4957258;29;20572;-96
2021/12/20 02:51:38;;;;;;;18.87;3.73;;;1.30;99.90;;;;;;4940479;29;20687;-94
2021/12/20 02:54:06;;;;;;;12.17;3.20;;;1.20;99.90;;;;;;4939778;29;20199;-95
2021/12/20 02:56:33;;;;;;;16.60;3.47;;;1.20;99.90;;;;;;4939922;29;20196;-93
2021/12/20 02:58:59;;;;;;;23.47;3.70;;;1.20;99.90;;;;;;4940160;29;20189;-93
2021/12/20 03:01:25;;;;;;;15.10;3.57;;;1.20;99.90;;;;;;4939939;29;20675;-93
2021/12/20 03:03:53;;;;;;;19.83;3.13;;;1.20;99.90;;;;;;4939884;29;20217;-93
2021/12/20 03:06:41;;;;;;;15.03;3.00;;;1.20;99.90;;;;;;4940028;29;20192;-92
2021/12/20 03:09:10;;;;;;;17.83;3.87;;;1.20;99.90;;;;;;4939868;29;20272;-95
2021/12/20 03:11:36;;;;;;;16.47;3.37;;;1.20;99.90;;;;;;4939875;29;20185;-93
2021/12/20 03:14:40;;;;;;;20.13;3.93;;;1.10;99.90;;;;;;4939899;29;20614;-94
2021/12/20 03:16:57;;;;;;;18.17;3.43;;;1.10;99.90;;;;;;4955111;29;20278;-93
2021/12/20 03:19:22;;;;;;;16.30;3.10;;;1.10;99.90;;;;;;4939691;29;20287;-93
2021/12/20 03:21:48;;;;;;;17.63;3.43;;;1.10;99.90;;;;;;4939805;29;20630;-92
2021/12/20 03:24:14;;;;;;;18.03;3.43;;;1.00;99.90;;;;;;4939627;29;20205;-93
2021/12/20 03:26:40;;;;;;;18.07;3.83;;;0.90;99.90;;;;;;4939626;29;20190;-93
2021/12/20 03:29:05;;;;;;;17.73;3.93;;;0.90;99.90;;;;;;4941455;29;20242;-92
2021/12/20 03:31:31;;;;;;;18.63;3.63;;;0.90;99.90;;;;;;4943505;29;20195;-92
2021/12/20 03:33:58;;;;;;;14.70;3.73;;;0.90;99.90;;;;;;4943371;29;20204;-92
2021/12/20 03:36:24;;;;;;;14.33;2.87;;;0.90;99.90;;;;;;4943042;29;20280;-92
2021/12/20 03:38:50;;;;;;;15.10;3.60;;;0.90;99.90;;;;;;4943083;29;20197;-93
2021/12/20 03:41:16;;;;;;;18.93;3.70;;;0.90;99.90;;;;;;4943082;29;20186;-92
2021/12/20 03:43:42;;;;;;;19.27;3.67;;;0.90;99.90;;;;;;4943201;29;20185;-93
2021/12/20 03:46:08;;;;;;;21.00;4.20;;;0.90;99.90;;;;;;4943192;29;20201;-93
2021/12/20 03:48:34;;;;;;;24.80;4.00;;;0.90;99.90;;;;;;4942575;29;20200;-93
2021/12/20 03:51:02;;;;;;;14.20;3.23;;;0.90;99.90;;;;;;4943036;29;20632;-93
2021/12/20 03:53:29;;;;;;;15.50;3.40;;;0.80;99.90;;;;;;4942891;29;20193;-93
2021/12/20 03:55:55;;;;;;;21.97;4.03;;;0.80;99.90;;;;;;4942543;29;20294;-92
2021/12/20 03:58:22;;;;;;;20.63;3.87;;;0.80;99.90;;;;;;4943030;29;20636;-93
2021/12/20 04:00:49;;;;;;;13.50;2.90;;;0.90;99.90;;;;;;4942728;29;20201;-93
2021/12/20 04:03:15;;;;;;;16.40;3.27;;;0.90;99.90;;;;;;4942552;29;20192;-93
2021/12/20 04:05:42;;;;;;;17.80;3.40;;;0.90;99.90;;;;;;4942720;29;20284;-93
2021/12/20 04:08:08;;;;;;;15.67;3.07;;;0.90;99.90;;;;;;4942481;29;20189;-93
2021/12/20 04:10:35;;;;;;;12.93;3.60;;;0.90;99.90;;;;;;4942621;29;20196;-93
2021/12/20 04:13:01;;;;;;;14.63;3.23;;;0.90;99.90;;;;;;4942605;29;20185;-94
2021/12/20 04:15:27;;;;;;;15.07;4.07;;;0.90;99.90;;;;;;4951639;29;20213;-93
2021/12/20 04:17:53;;;;;;;18.83;3.43;;;0.80;99.90;;;;;;4922721;29;20236;-93
2021/12/20 04:20:18;;;;;;;18.73;3.80;;;0.80;99.90;;;;;;4923446;29;20189;-93
2021/12/20 04:22:44;;;;;;;15.97;3.70;;;0.70;99.90;;;;;;4923390;29;20228;-94
2021/12/20 04:25:10;;;;;;;15.40;3.43;;;0.70;99.90;;;;;;4923325;29;20231;-93
2021/12/20 04:27:36;;;;;;;18.17;3.40;;;0.60;99.90;;;;;;4923085;29;20196;-92
2021/12/20 04:30:11;;;;;;;11.27;2.83;;;0.60;99.90;;;;;;4922971;29;20589;-93
2021/12/20 04:32:38;;;;;;;17.20;3.47;;;0.60;99.90;;;;;;4923062;29;20193;-93
2021/12/20 04:35:04;;;;;;;9.30;3.00;;;0.60;99.90;;;;;;4922861;29;20225;-93
2021/12/20 04:37:30;;;;;;;15.77;3.90;;;0.70;99.90;;;;;;4923054;29;20229;-94
2021/12/20 04:39:57;;;;;;;15.20;3.97;;;0.60;99.90;;;;;;4938617;29;20201;-94
2021/12/20 04:42:23;;;;;;;20.07;4.03;;;0.60;99.90;;;;;;4923410;29;20194;-94
2021/12/20 04:44:48;;;;;;;16.80;3.20;;;0.50;99.90;;;;;;4925548;29;20542;-93
2021/12/20 04:47:14;;;;;;;16.00;3.93;;;0.50;99.90;;;;;;4942023;29;20189;-94
2021/12/20 04:49:40;;;;;;;16.80;3.97;;;0.50;99.90;;;;;;4941879;29;20219;-94
2021/12/20 04:52:06;;;;;;;18.37;3.63;;;0.50;99.90;;;;;;4941873;29;20620;-94
2021/12/20 04:54:31;;;;;;;16.57;3.33;;;0.50;99.90;;;;;;4942274;29;20314;-94
2021/12/20 04:56:57;;;;;;;11.20;3.00;;;0.50;99.90;;;;;;4942230;29;20188;-94
2021/12/20 04:59:23;;;;;;;17.67;3.00;;;0.50;99.90;;;;;;4941879;29;20220;-93
2021/12/20 05:01:49;;;;;;;16.67;2.90;;;0.50;99.90;;;;;;4941852;29;20186;-93
2021/12/20 05:04:15;;;;;;;13.47;3.47;;;0.60;99.90;;;;;;4941575;29;20710;-93
2021/12/20 05:06:40;;;;;;;15.47;3.53;;;0.50;99.90;;;;;;4941412;29;20656;-94
2021/12/20 05:09:06;;;;;;;15.73;3.73;;;0.50;99.90;;;;;;4941620;29;20194;-94
2021/12/20 05:11:36;;;;;;;18.23;3.70;;;0.50;99.90;;;;;;4941463;29;20631;-93
2021/12/20 05:14:03;;;;;;;12.97;3.77;;;0.40;99.90;;;;;;4940870;29;20224;-94
2021/12/20 05:16:29;;;;;;;16.33;3.83;;;0.40;99.90;;;;;;4940686;29;20322;-95
2021/12/20 05:18:54;;;;;;;19.00;4.07;;;0.30;99.90;;;;;;4941454;29;20193;-94
2021/12/20 05:21:20;;;;;;;14.97;3.67;;;0.30;99.90;;;;;;4941347;29;20251;-93
2021/12/20 05:23:46;;;;;;;18.97;4.17;;;0.20;99.90;;;;;;4941005;29;20185;-94
2021/12/20 05:26:12;;;;;;;11.23;3.33;;;0.20;99.90;;;;;;4941287;29;20273;-95
2021/12/20 05:28:38;;;;;;;14.93;3.17;;;0.10;99.90;;;;;;4941272;29;20194;-94
2021/12/20 05:31:03;;;;;;;9.73;3.40;;;0.20;99.90;;;;;;4940943;29;20195;-94
2021/12/20 05:33:29;;;;;;;18.63;3.77;;;0.10;99.90;;;;;;4941068;29;20196;-94
2021/12/20 05:35:55;;;;;;;21.33;4.70;;;0.00;99.90;;;;;;4940715;29;20219;-94
2021/12/20 05:38:21;;;;;;;19.63;4.33;;;0.10;99.90;;;;;;4941162;29;20608;-94
2021/12/20 05:40:47;;;;;;;14.40;3.37;;;0.00;99.90;;;;;;4941156;29;20200;-94
2021/12/20 05:43:12;;;;;;;15.13;3.80;;;0.00;99.90;;;;;;4941193;29;20200;-94
2021/12/20 05:45:38;;;;;;;15.20;4.30;;;-0.10;99.90;;;;;;4939567;29;20196;-94
2021/12/20 05:48:04;;;;;;;16.33;3.97;;;-0.10;99.90;;;;;;4938697;29;20691;-94
2021/12/20 05:50:31;;;;;;;14.40;4.43;;;-0.10;99.90;;;;;;4922226;29;20198;-94
2021/12/20 05:52:56;;;;;;;16.83;4.20;;;-0.10;99.90;;;;;;4921754;29;20523;-93
2021/12/20 05:55:22;;;;;;;19.33;4.07;;;-0.10;99.90;;;;;;4921781;29;20222;-94
2021/12/20 05:57:48;;;;;;;13.10;3.80;;;-0.10;99.90;;;;;;4921982;29;20190;-94
2021/12/20 06:00:18;;;;;;;17.93;3.80;;;-0.10;99.90;;;;;;4921823;29;20198;-94
2021/12/20 06:02:48;;;;;;;20.23;4.70;;;-0.20;99.90;;;;;;4922239;29;20291;-95
2021/12/20 06:05:14;;;;;;;15.57;4.13;;;-0.30;99.90;;;;;;4921926;29;20197;-94
2021/12/20 06:07:42;;;;;;;20.63;4.73;;;-0.30;99.90;;;;;;4921529;29;20625;-93
2021/12/20 06:10:11;;;;;;;16.80;4.27;;;-0.30;99.90;;;;;;4922385;29;20621;-94
2021/12/20 06:12:39;;;;;;;18.47;3.97;;;-0.30;99.90;;;;;;4921334;29;20277;-94
2021/12/20 06:15:05;;;;;;;15.73;3.90;;;-0.30;99.90;;;;;;4939336;29;20301;-94
2021/12/20 06:17:31;;;;;;;12.90;4.53;;;-0.30;99.90;;;;;;4940106;29;20288;-95
2021/12/20 06:19:57;;;;;;;14.70;4.40;;;-0.20;99.90;;;;;;4940194;29;20196;-94
2021/12/20 06:22:23;;;;;;;15.80;4.77;;;-0.20;99.90;;;;;;4940499;29;20264;-94
2021/12/20 06:24:49;;;;;;;15.37;5.10;;;-0.20;99.90;;;;;;4940678;29;20245;-94
2021/12/20 06:27:15;;;;;;;18.93;5.53;;;-0.20;99.90;;;;;;4940128;29;20191;-95
2021/12/20 06:29:40;;;;;;;18.43;4.70;;;-0.20;99.90;;;;;;4940233;29;20197;-94
2021/12/20 06:32:06;;;;;;;15.87;5.03;;;-0.30;99.90;;;;;;4933938;29;20712;-93
2021/12/20 06:42:18;;;;;;;17.50;4.47;;;-0.40;99.90;;;;;;5264304;23;20229;-94
2021/12/20 06:44:44;;;;;;;13.23;4.50;;;-0.40;99.90;;;;;;4926717;28;20221;-93
2021/12/20 06:47:10;;;;;;;14.57;4.13;;;-0.40;99.90;;;;;;4951203;28;20528;-92
2021/12/20 06:49:36;;;;;;;14.70;3.80;;;-0.40;99.90;;;;;;4925512;29;20185;-93
2021/12/20 06:52:03;;;;;;;13.43;4.47;;;-0.40;99.90;;;;;;4939525;29;20261;-95
2021/12/20 06:54:29;;;;;;;18.73;4.40;;;-0.40;99.90;;;;;;4938724;29;20664;-94
2021/12/20 06:56:55;;;;;;;18.27;4.20;;;-0.50;99.90;;;;;;4941531;28;20680;-93
2021/12/20 06:59:22;;;;;;;22.00;4.40;;;-0.50;99.90;;;;;;4960022;28;20185;-96
2021/12/20 07:01:48;;;;;;;19.13;4.37;;;-0.50;99.90;;;;;;4959927;28;20227;-95
2021/12/20 07:04:15;;;;;;;20.80;4.70;;;-0.50;99.90;;;;;;4959826;28;20199;-96
2021/12/20 07:06:42;;;;;;;16.70;5.37;;;-0.50;99.90;;;;;;4962647;28;20607;-95
2021/12/20 07:09:09;;;;;;;20.57;5.60;;;-0.50;99.90;;;;;;4962623;28;20181;-95
2021/12/20 07:11:34;;;;;;;19.13;4.97;;;-0.40;99.90;;;;;;4932682;29;20189;-96
2021/12/20 07:14:01;;;;;;;18.23;5.40;;;-0.40;99.90;;;;;;4925240;29;20518;-96
2021/12/20 07:16:32;;;;;;;15.33;4.30;;;-0.40;99.90;;;;;;4924476;29;20624;-94
2021/12/20 07:18:58;;;;;;;13.83;4.73;;;-0.40;99.90;;;;;;4925284;29;20190;-93
2021/12/20 07:21:23;;;;;;;12.53;4.20;;;-0.40;99.90;;;;;;4925125;29;20196;-94
2021/12/20 07:23:49;;;;;;;14.33;3.57;;;-0.40;99.90;;;;;;4924403;29;20273;-95
2021/12/20 07:26:15;;;;;;;15.40;3.73;;;-0.40;99.90;;;;;;4925524;29;20189;-96
2021/12/20 07:28:43;;;;;;;11.20;3.87;;;-0.30;99.90;;;;;;4926512;29;20221;-96
2021/12/20 07:31:13;;;;;;;15.93;3.97;;;-0.40;99.90;;;;;;4925746;29;20205;-96
2021/12/20 07:33:40;;;;;;;14.80;3.97;;;-0.30;99.90;;;;;;4929105;29;20256;-94
2021/12/20 07:36:07;;;;;;;13.40;3.80;;;-0.30;99.90;;;;;;4943992;29;20221;-96
2021/12/20 07:38:34;;;;;;;9.73;3.20;;;-0.30;99.90;;;;;;4944854;29;20240;-95
2021/12/20 07:41:01;;;;;;;14.40;3.40;;;-0.20;99.90;;;;;;4944666;28;20220;-96
2021/12/20 07:43:27;;;;;;;10.53;3.20;;;-0.20;99.90;;;;;;4963862;28;20180;-96
2021/12/20 07:45:53;;;;;;;11.07;3.23;;;-0.20;99.90;;;;;;4956415;28;20282;-94
2021/12/20 07:48:20;;;;;;;13.43;3.70;;;-0.20;99.90;;;;;;4964138;28;20188;-96
2021/12/20 07:50:47;;;;;;;9.70;3.30;;;-0.20;99.90;;;;;;4964518;28;20205;-95
2021/12/20 07:53:14;;;;;;;15.50;3.47;;;-0.30;99.90;;;;;;4964130;28;20240;-95
2021/12/20 07:55:40;;;;;;;12.43;4.13;;;-0.30;99.90;;;;;;4962318;28;20267;-92
2021/12/20 07:58:06;;;;;;;11.00;4.20;;;-0.30;99.90;;;;;;4962831;28;20243;-93
2021/12/20 08:00:33;;;;;;;12.60;5.40;;;-0.30;99.90;;;;;;4980106;28;20188;-94
2021/12/20 08:03:00;;;;;;;94.33;48.27;;;-0.30;99.90;;;;;;4961981;28;20193;-93
2021/12/20 08:05:28;;;;;;;22.20;8.37;;;-0.20;99.90;;;;;;4963597;28;20191;-93
2021/12/20 08:07:54;;;;;;;14.30;4.30;;;-0.20;99.90;;;;;;4961882;28;20216;-92
2021/12/20 08:10:22;;;;;;;13.40;3.83;;;-0.20;99.90;;;;;;4962113;28;20194;-94
2021/12/20 08:12:49;;;;;;;13.80;3.63;;;-0.20;99.90;;;;;;4954480;29;20194;-92
2021/12/20 08:15:15;;;;;;;10.73;3.80;;;-0.30;99.90;;;;;;4937499;29;20224;-92
2021/12/20 08:17:41;;;;;;;18.43;4.80;;;-0.30;99.90;;;;;;4942078;29;20192;-94
2021/12/20 08:20:09;;;;;;;11.47;5.07;;;-0.30;99.90;;;;;;4942525;29;20523;-93
2021/12/20 08:22:35;;;;;;;14.37;5.33;;;-0.30;99.90;;;;;;4942292;29;20189;-92
2021/12/20 08:25:01;;;;;;;20.93;7.53;;;-0.30;99.90;;;;;;4942389;29;20187;-94
2021/12/20 08:27:27;;;;;;;18.77;8.27;;;-0.20;99.90;;;;;;4942193;29;20194;-94
2021/12/20 08:29:53;;;;;;;16.70;6.00;;;-0.20;99.90;;;;;;4941973;29;20193;-94
2021/12/20 08:32:19;;;;;;;12.50;4.30;;;-0.20;99.90;;;;;;4942397;29;20594;-94
2021/12/20 08:34:44;;;;;;;9.00;3.77;;;-0.20;99.90;;;;;;4941841;28;20230;-94
2021/12/20 08:37:10;;;;;;;12.63;3.87;;;-0.20;99.90;;;;;;4942149;29;20186;-94
2021/12/20 08:39:36;;;;;;;12.97;3.83;;;-0.20;99.90;;;;;;4941721;29;20578;-95
2021/12/20 08:42:03;;;;;;;14.63;4.13;;;-0.20;99.90;;;;;;4941629;29;20233;-93
2021/12/20 08:44:33;;;;;;;10.17;3.63;;;-0.20;99.90;;;;;;4941755;29;20651;-93
2021/12/20 08:46:59;;;;;;;14.03;4.20;;;-0.10;99.90;;;;;;4941699;29;20193;-94
2021/12/20 08:49:25;;;;;;;12.00;4.03;;;-0.10;99.90;;;;;;4941812;29;20208;-94
2021/12/20 08:51:52;;;;;;;12.47;3.50;;;-0.10;99.90;;;;;;4942248;29;20247;-94
2021/12/20 08:54:19;;;;;;;12.70;4.30;;;0.00;99.90;;;;;;4941550;29;20609;-92
2021/12/20 08:56:44;;;;;;;10.63;3.43;;;-0.10;99.90;;;;;;4941932;29;20193;-93
2021/12/20 08:59:11;;;;;;;13.00;4.33;;;-0.10;99.90;;;;;;4935006;29;20545;-93
2021/12/20 09:01:37;;;;;;;11.10;3.40;;;0.00;99.90;;;;;;4941289;29;20213;-93
2021/12/20 09:04:04;;;;;;;10.37;3.57;;;0.00;99.90;;;;;;4941301;29;20210;-93
2021/12/20 09:06:31;;;;;;;8.07;3.40;;;0.10;99.90;;;;;;4941419;29;20184;-93
2021/12/20 09:08:58;;;;;;;10.97;4.00;;;0.10;99.90;;;;;;4941788;29;20252;-94
2021/12/20 09:11:28;;;;;;;10.43;3.50;;;0.10;99.90;;;;;;4942119;29;20192;-94
2021/12/20 09:13:55;;;;;;;7.60;3.50;;;0.10;99.90;;;;;;4941353;29;20185;-93
2021/12/20 09:16:21;;;;;;;10.00;3.53;;;0.10;99.90;;;;;;4940897;29;20236;-94
2021/12/20 09:18:48;;;;;;;10.73;3.90;;;0.20;99.90;;;;;;4940626;29;20227;-94
2021/12/20 09:21:15;;;;;;;8.97;3.10;;;0.30;99.90;;;;;;4941430;29;20196;-93
2021/12/20 09:23:42;;;;;;;11.60;3.93;;;0.30;99.90;;;;;;4941269;29;20196;-93
2021/12/20 09:26:08;;;;;;;11.83;4.07;;;0.30;99.90;;;;;;4940346;29;20338;-93
2021/12/20 09:28:34;;;;;;;6.17;3.00;;;0.30;99.90;;;;;;4941904;29;20236;-94
2021/12/20 09:31:01;;;;;;;8.67;3.57;;;0.40;99.90;;;;;;4941343;29;20248;-94
2021/12/20 09:33:27;;;;;;;14.33;3.97;;;0.40;99.90;;;;;;4941347;29;20199;-94
2021/12/20 09:35:53;;;;;;;10.87;3.87;;;0.40;99.90;;;;;;4940872;29;20325;-94
2021/12/20 09:38:20;;;;;;;9.27;3.50;;;0.50;99.90;;;;;;4940737;29;20189;-94
2021/12/20 09:43:49;;;;;;;12.63;3.57;;;0.60;99.90;;;;;;4925942;29;20608;-94
2021/12/20 09:46:17;;;;;;;12.90;3.83;;;0.60;99.90;;;;;;4939593;29;20507;-95
2021/12/20 09:48:45;;;;;;;9.77;3.17;;;0.50;99.90;;;;;;4941387;29;20189;-94
2021/12/20 09:51:12;;;;;;;15.17;3.90;;;0.60;99.90;;;;;;4941227;29;20221;-94
2021/12/20 09:53:38;;;;;;;13.50;3.97;;;0.60;99.90;;;;;;4940604;28;20280;-95
2021/12/20 09:56:06;;;;;;;8.30;3.63;;;0.70;99.90;;;;;;4940976;29;20221;-96
2021/12/20 09:58:36;;;;;;;9.17;4.17;;;0.80;99.90;;;;;;4940722;29;20189;-95
2021/12/20 10:01:03;;;;;;;11.87;3.80;;;0.80;99.90;;;;;;4950386;29;20288;-96
2021/12/20 10:03:32;;;;;;;8.43;3.33;;;0.80;99.90;;;;;;4953274;29;20194;-94
2021/12/20 10:05:58;;;;;;;11.00;3.77;;;0.80;99.90;;;;;;4959273;29;20188;-95
2021/12/20 10:08:36;;;;;;;9.90;3.47;;;0.90;99.90;;;;;;4949146;29;20192;-95
2021/12/20 10:11:16;;;;;;;12.87;3.80;;;0.90;99.90;;;;;;4939745;29;20195;-96
2021/12/20 10:13:42;;;;;;;10.77;3.23;;;1.10;99.90;;;;;;4943963;29;20186;-96
2021/12/20 10:16:17;;;;;;;9.90;3.57;;;1.10;99.90;;;;;;4943866;29;20288;-95
2021/12/20 10:18:43;;;;;;;13.77;3.60;;;1.10;99.90;;;;;;4941447;29;20224;-94
2021/12/20 10:21:09;;;;;;;16.93;4.17;;;1.10;99.90;;;;;;4940809;29;20283;-95
2021/12/20 10:23:41;;;;;;;9.40;3.40;;;1.20;99.90;;;;;;4940652;29;20623;-93
2021/12/20 10:26:14;;;;;;;9.67;3.33;;;1.30;99.90;;;;;;4940114;29;20667;-95
2021/12/20 10:28:42;;;;;;;10.00;3.47;;;1.30;99.90;;;;;;4940999;29;20177;-95
2021/12/20 10:31:18;;;;;;;10.87;3.60;;;1.40;99.90;;;;;;4940714;29;20195;-96
2021/12/20 10:33:55;;;;;;;8.97;4.10;;;1.40;99.90;;;;;;4945752;29;20185;-94
2021/12/20 10:36:21;;;;;;;10.53;3.30;;;1.50;99.90;;;;;;4940117;29;20354;-94
2021/12/20 10:38:56;;;;;;;10.80;3.80;;;1.50;99.90;;;;;;4940257;29;20189;-93
2021/12/20 10:41:34;;;;;;;9.47;3.07;;;1.50;99.90;;;;;;4940505;29;20239;-94
2021/12/20 10:44:03;;;;;;;7.33;3.20;;;1.60;99.90;;;;;;4940442;29;20183;-95
2021/12/20 10:46:34;;;;;;;11.73;3.33;;;1.60;99.90;;;;;;4955715;28;20196;-95
2021/12/20 10:49:14;;;;;;;12.60;3.30;;;1.70;99.90;;;;;;4958104;28;20239;-95
2021/12/20 10:51:59;;;;;;;11.33;3.07;;;1.80;99.90;;;;;;4936159;29;20201;-93
2021/12/20 10:54:31;;;;;;;8.93;3.83;;;1.90;99.90;;;;;;4920697;29;20180;-93
2021/12/20 10:57:01;;;;;;;8.33;3.07;;;1.90;99.90;;;;;;4920226;29;20643;-94
2021/12/20 10:59:31;;;;;;;8.47;3.20;;;1.90;99.90;;;;;;4920455;29;20189;-93
2021/12/20 11:04:48;;;;;;;12.93;3.53;;;2.00;99.90;;;;;;4937792;29;20167;-93
2021/12/20 11:10:03;;;;;;;8.23;3.10;;;2.10;99.90;;;;;;4939554;29;20294;-95
2021/12/20 11:12:31;;;;;;;7.10;3.23;;;2.20;99.90;;;;;;4922186;29;20189;-94
2021/12/20 11:15:00;;;;;;;14.20;3.53;;;2.20;99.90;;;;;;4921804;29;20222;-94
2021/12/20 11:17:28;;;;;;;11.00;3.47;;;2.20;99.90;;;;;;4936810;29;20188;-95
2021/12/20 11:19:57;;;;;;;11.83;3.13;;;2.20;99.90;;;;;;4936413;29;20647;-95
2021/12/20 11:22:24;;;;;;;10.87;3.27;;;2.20;99.90;;;;;;4940583;29;20224;-95
2021/12/20 11:25:15;;;;;;;8.73;3.13;;;2.20;99.90;;;;;;4944416;29;20192;-95
2021/12/20 11:27:46;;;;;;;7.43;2.53;;;2.40;99.90;;;;;;4945519;29;20196;-95
2021/12/20 11:30:34;;;;;;;5.97;3.00;;;2.50;99.90;;;;;;4919994;29;20192;-95
2021/12/20 11:33:01;;;;;;;10.77;3.23;;;2.50;99.90;;;;;;4947285;29;20217;-95
2021/12/20 11:35:28;;;;;;;11.67;3.23;;;2.60;99.90;;;;;;4947405;29;20225;-96
2021/12/20 11:37:55;;;;;;;11.23;3.80;;;2.60;99.90;;;;;;4933819;29;20197;-96
2021/12/20 11:40:21;;;;;;;9.27;2.80;;;2.60;99.90;;;;;;4925214;29;20581;-95
2021/12/20 11:42:48;;;;;;;10.27;3.13;;;2.70;99.90;;;;;;4907059;29;20233;-94
2021/12/20 11:45:16;;;;;;;10.07;3.17;;;2.80;99.90;;;;;;4930863;29;20345;-94
2021/12/20 11:47:59;;;;;;;7.43;3.13;;;2.90;99.90;;;;;;4939675;29;20185;-95
2021/12/20 11:50:37;;;;;;;7.90;3.13;;;2.90;99.90;;;;;;4942166;29;20514;-95
2021/12/20 11:53:09;;;;;;;11.23;3.40;;;3.10;99.90;;;;;;4943835;29;20196;-95
2021/12/20 11:55:36;;;;;;;7.53;2.83;;;3.10;99.90;;;;;;4943472;29;20310;-94
2021/12/20 11:58:06;;;;;;;11.70;3.03;;;3.10;99.90;;;;;;4947924;28;20195;-95
2021/12/20 12:00:38;;;;;;;13.40;3.33;;;3.00;99.90;;;;;;4960372;28;20185;-96
2021/12/20 12:03:14;;;;;;;10.17;3.03;;;3.00;99.90;;;;;;4948629;28;20212;-95
2021/12/20 12:05:58;;;;;;;8.57;2.93;;;3.00;99.90;;;;;;4932351;29;20185;-95
2021/12/20 12:08:26;;;;;;;9.27;2.80;;;3.00;99.90;;;;;;4943427;29;20185;-96
2021/12/20 12:11:09;;;;;;;17.50;3.67;;;3.10;99.90;;;;;;4943647;29;20190;-95
2021/12/20 12:14:05;;;;;;;12.13;3.17;;;3.10;99.90;;;;;;4943355;29;20180;-94
2021/12/20 12:16:59;;;;;;;8.73;2.90;;;3.10;99.90;;;;;;4958716;29;20249;-94
2021/12/20 12:19:44;;;;;;;11.53;3.03;;;3.20;99.90;;;;;;4942351;29;20193;-94
2021/12/20 12:22:25;;;;;;;8.83;3.80;;;3.20;99.90;;;;;;4942455;29;20621;-94
2021/12/20 12:24:52;;;;;;;11.23;3.27;;;3.30;99.90;;;;;;4942459;29;20224;-95
2021/12/20 12:27:23;;;;;;;7.90;2.90;;;3.30;99.90;;;;;;4943047;29;20678;-95
2021/12/20 12:30:30;;;;;;;7.80;3.20;;;3.30;99.90;;;;;;4942808;29;20534;-96
2021/12/20 12:32:56;;;;;;;9.03;3.50;;;3.40;99.90;;;;;;4905773;29;20185;-95
2021/12/20 12:35:41;;;;;;;10.60;3.50;;;3.40;99.90;;;;;;4943098;28;20312;-95
2021/12/20 12:38:17;;;;;;;12.63;3.07;;;3.50;99.90;;;;;;4961200;28;20181;-95
2021/12/20 12:40:46;;;;;;;12.17;3.70;;;3.50;99.90;;;;;;4945305;29;20224;-95
2021/12/20 12:43:16;;;;;;;10.07;3.00;;;3.40;99.90;;;;;;4942867;29;20519;-95
2021/12/20 12:45:54;;;;;;;13.33;3.63;;;3.50;99.90;;;;;;4941772;29;20185;-95
2021/12/20 12:48:46;;;;;;;7.43;2.43;;;3.50;99.90;;;;;;4942367;29;20181;-95
2021/12/20 12:51:21;;;;;;;9.97;3.30;;;3.50;99.90;;;;;;4938884;29;20240;-94
2021/12/20 12:53:55;;;;;;;10.37;2.80;;;3.50;99.90;;;;;;4949239;29;20188;-96
2021/12/20 12:56:24;;;;;;;9.40;2.90;;;3.60;99.90;;;;;;4952692;29;20224;-96
2021/12/20 12:59:09;;;;;;;10.97;3.23;;;3.60;99.90;;;;;;4950566;29;20194;-96
2021/12/20 13:01:37;;;;;;;8.30;2.40;;;3.60;99.90;;;;;;4946487;29;20181;-96
2021/12/20 13:04:04;;;;;;;7.50;2.70;;;3.60;99.90;;;;;;4948251;29;20193;-96
2021/12/20 13:06:30;;;;;;;7.13;2.90;;;3.60;99.90;;;;;;4930698;29;20200;-96
2021/12/20 13:08:59;;;;;;;9.33;2.63;;;3.60;99.90;;;;;;4950935;29;20249;-96
2021/12/20 13:11:25;;;;;;;7.77;2.97;;;3.60;99.90;;;;;;4951205;29;20704;-96
2021/12/20 13:14:18;;;;;;;12.03;3.33;;;3.70;99.90;;;;;;4949854;29;20185;-96
2021/12/20 13:16:58;;;;;;;8.20;2.80;;;3.80;99.90;;;;;;4951067;29;20205;-96
2021/12/20 13:19:33;;;;;;;9.17;3.03;;;3.90;99.90;;;;;;4946864;29;20189;-96
2021/12/20 13:22:04;;;;;;;8.17;2.40;;;3.80;99.90;;;;;;4945056;29;20189;-96
2021/12/20 13:24:31;;;;;;;8.87;2.50;;;3.90;99.90;;;;;;4943157;29;20540;-95
2021/12/20 13:27:04;;;;;;;6.70;2.23;;;4.00;99.90;;;;;;4942727;29;20231;-96
2021/12/20 13:29:31;;;;;;;11.57;3.07;;;4.00;99.90;;;;;;4943761;29;20185;-95